Time;durP1;ratioP1;P1;durP2;ratioP2;P2;SDS_P1;SDS_P2;PMS_P1;PMS_P2;Temp;Humidity;BMP_temperature;BMP_pressure;BME280_temperature;BME280_humidity;BME280_pressure;Samples;Min_cycle;Max_cycle;Signal;HPM_P1;HPM_P2
2022/03/18 00:02:39;;;;;;;;;;;;;;;-4.30;64.20;103091.08;1805557;79;20247;-60
2022/03/18 00:05:43;;;;;;;;;;;;;;;-4.28;64.23;103089.72;1805691;79;20212;-59
2022/03/18 00:08:50;;;;;;;;;;;;;;;-4.32;64.11;103099.99;1821824;78;20196;-60
2022/03/18 00:11:56;;;;;;;;;;;;;;;-4.34;64.05;103093.80;1770483;81;20253;-60
2022/03/18 00:15:02;;;;;;;;;;;;;;;-4.34;64.15;103102.69;1770864;81;20185;-60
2022/03/18 00:18:06;;;;;;;;;;;;;;;-4.37;63.91;103102.72;1770642;80;20193;-60
2022/03/18 00:21:10;;;;;;;;;;;;;;;-4.45;63.80;103095.66;1770414;81;20178;-59
2022/03/18 00:24:15;;;;;;;;;;;;;;;-4.45;63.96;103103.68;1770490;81;20186;-59
2022/03/18 00:27:19;;;;;;;;;;;;;;;-4.46;63.89;103101.92;1770658;81;20265;-60
2022/03/18 00:30:25;;;;;;;;;;;;;;;-4.49;63.88;103100.18;1752837;81;20222;-61
2022/03/18 00:33:29;;;;;;;;;;;;;;;-4.54;63.79;103098.44;1770616;81;20189;-60
2022/03/18 00:36:35;;;;;;;;;;;;;;;-4.61;63.94;103088.25;1771364;81;20279;-59
2022/03/18 00:39:39;;;;;;;;;;;;;;;-4.60;64.07;103092.23;1770465;81;20186;-59
2022/03/18 00:42:46;;;;;;;;;;;;;;;-4.58;63.99;103091.36;1770471;81;20205;-60
2022/03/18 00:45:52;;;;;;;;;;;;;;;-4.64;63.96;103091.84;1770404;81;20530;-60
2022/03/18 00:52:22;;;;;;;;;;;;;;;-4.72;64.11;103093.70;1770455;81;20201;-60
2022/03/18 00:55:26;;;;;;;;;;;;;;;-4.74;64.18;103106.18;1770719;81;20217;-61
2022/03/18 00:58:31;;;;;;;;;;;;;;;-4.75;64.22;103107.09;1770571;81;20189;-60
2022/03/18 01:01:36;;;;;;;;;;;;;;;-4.76;64.36;103109.30;1770645;81;20222;-59
2022/03/18 01:04:42;;;;;;;;;;;;;;;-4.72;64.38;103107.06;1770702;81;20198;-59
2022/03/18 01:07:45;;;;;;;;;;;;;;;-4.76;64.23;103105.77;1770563;81;20190;-60
2022/03/18 01:10:53;;;;;;;;;;;;;;;-4.82;64.28;103106.69;1782234;78;20206;-60
2022/03/18 01:13:59;;;;;;;;;;;;;;;-4.88;64.45;103100.51;1805699;79;20200;-61
2022/03/18 01:17:03;;;;;;;;;;;;;;;-4.89;64.51;103100.98;1805829;79;20294;-59
2022/03/18 01:20:10;;;;;;;;;;;;;;;-4.90;64.68;103103.19;1805674;79;20251;-59
2022/03/18 01:23:17;;;;;;;;;;;;;;;-4.86;64.68;103107.63;1805395;79;20271;-60
2022/03/18 01:26:24;;;;;;;;;;;;;;;-4.89;64.68;103102.31;1778340;79;20196;-59
2022/03/18 01:29:29;;;;;;;;;;;;;;;-4.90;64.69;103113.88;1805705;79;20191;-60
2022/03/18 01:32:34;;;;;;;;;;;;;;;-4.90;64.75;103112.54;1805616;79;20187;-59
2022/03/18 01:35:38;;;;;;;;;;;;;;;-4.90;64.76;103117.88;1805580;79;20263;-60
2022/03/18 01:38:42;;;;;;;;;;;;;;;-4.92;64.79;103116.13;1805694;79;20199;-59
2022/03/18 01:41:47;;;;;;;;;;;;;;;-4.97;64.90;103120.62;1805703;79;20192;-60
2022/03/18 01:44:52;;;;;;;;;;;;;;;-4.95;65.01;103119.70;1805578;79;20180;-60
2022/03/18 01:47:51;;;;;;;;;;;;;;;-4.91;65.15;103118.80;1805691;79;20263;-60
2022/03/18 01:50:44;;;;;;;;;;;;;;;-4.93;64.99;103115.70;1805520;79;20194;-61
2022/03/18 01:53:30;;;;;;;;;;;;;;;-4.97;65.07;103117.52;1805660;79;20259;-60
2022/03/18 01:56:22;;;;;;;;;;;;;;;-4.94;65.15;103121.92;1805669;79;20187;-62
2022/03/18 01:59:08;;;;;;;;;;;;;;;-4.90;65.15;103120.55;1805677;79;20551;-60
2022/03/18 02:02:01;;;;;;;;;;;;;;;-4.89;65.06;103124.13;1805546;79;20196;-61
2022/03/18 02:04:47;;;;;;;;;;;;;;;-4.89;65.05;103127.69;1805718;79;20183;-60
2022/03/18 02:07:41;;;;;;;;;;;;;;;-4.89;64.90;103127.69;1805474;79;20195;-60
2022/03/18 02:10:46;;;;;;;;;;;;;;;-4.92;64.89;103124.15;1805661;79;20204;-61
2022/03/18 02:13:51;;;;;;;;;;;;;;;-5.01;64.81;103129.09;1770565;81;20198;-60
2022/03/18 02:16:56;;;;;;;;;;;;;;;-5.04;64.89;103134.90;1770540;81;20189;-60
2022/03/18 02:20:01;;;;;;;;;;;;;;;-5.08;64.99;103132.72;1770503;81;20214;-60
2022/03/18 02:23:05;;;;;;;;;;;;;;;-5.12;65.10;103137.63;1770484;81;20193;-61
2022/03/18 02:26:13;;;;;;;;;;;;;;;-5.08;65.36;103138.50;1770565;81;20194;-60
2022/03/18 02:29:17;;;;;;;;;;;;;;;-5.03;65.52;103142.93;1770460;81;20209;-60
2022/03/18 02:32:21;;;;;;;;;;;;;;;-4.97;65.53;103136.64;1770500;81;20545;-61
2022/03/18 02:35:28;;;;;;;;;;;;;;;-4.91;65.48;103134.81;1770456;81;20241;-60
2022/03/18 02:38:32;;;;;;;;;;;;;;;-4.95;65.20;103133.05;1770577;81;20285;-60
2022/03/18 02:41:38;;;;;;;;;;;;;;;-4.96;65.15;103139.73;1770572;81;20197;-59
2022/03/18 02:44:43;;;;;;;;;;;;;;;-5.01;65.14;103142.45;1753714;81;20230;-60
2022/03/18 02:47:48;;;;;;;;;;;;;;;-5.02;65.21;103150.47;1770468;81;20186;-60
2022/03/18 02:50:53;;;;;;;;;;;;;;;-5.11;65.12;103148.77;1770643;81;20170;-60
2022/03/18 02:53:57;;;;;;;;;;;;;;;-5.18;65.19;103156.36;1770500;81;20514;-60
2022/03/18 02:57:01;;;;;;;;;;;;;;;-5.20;65.36;103162.62;1749928;81;20225;-60
2022/03/18 03:00:07;;;;;;;;;;;;;;;-5.22;65.42;103163.06;1770458;81;20217;-60
2022/03/18 03:03:11;;;;;;;;;;;;;;;-5.23;65.59;103171.52;1770566;81;20217;-60
2022/03/18 03:09:42;;;;;;;;;;;;;;;-5.38;65.50;103175.61;1770432;81;20232;-59
2022/03/18 03:12:47;;;;;;;;;;;;;;;-5.46;65.80;103181.44;1780500;77;20259;-59
2022/03/18 03:15:51;;;;;;;;;;;;;;;-5.45;66.05;103187.63;1805507;79;20517;-59
2022/03/18 03:18:57;;;;;;;;;;;;;;;-5.48;65.99;103187.21;1805309;79;20199;-59
2022/03/18 03:22:02;;;;;;;;;;;;;;;-5.50;66.10;103199.66;1805541;79;20208;-59
2022/03/18 03:25:05;;;;;;;;;;;;;;;-5.53;66.16;103206.34;1805764;79;20191;-59
2022/03/18 03:28:10;;;;;;;;;;;;;;;-5.55;66.26;103204.12;1805468;79;20500;-60
2022/03/18 03:31:13;;;;;;;;;;;;;;;-5.61;66.23;103205.95;1805330;79;20195;-60
2022/03/18 03:34:20;;;;;;;;;;;;;;;-5.69;66.37;103219.30;1805535;79;20199;-60
2022/03/18 03:37:26;;;;;;;;;;;;;;;-5.73;66.61;103209.98;1805572;79;20254;-60
2022/03/18 03:40:30;;;;;;;;;;;;;;;-5.71;66.74;103218.88;1805411;79;20188;-61
2022/03/18 03:43:35;;;;;;;;;;;;;;;-5.74;66.74;103224.22;1805614;79;20263;-61
2022/03/18 03:46:41;;;;;;;;;;;;;;;-5.78;66.89;103228.66;1805463;79;20207;-61
2022/03/18 03:49:48;;;;;;;;;;;;;;;-5.83;67.03;103239.81;1805586;79;20263;-61
2022/03/18 03:52:53;;;;;;;;;;;;;;;-5.83;67.21;103232.25;1805527;79;20231;-60
2022/03/18 03:55:57;;;;;;;;;;;;;;;-5.79;67.34;103242.91;1805759;79;20543;-59
2022/03/18 03:59:03;;;;;;;;;;;;;;;-5.79;67.32;103240.67;1819651;78;20191;-59
2022/03/18 04:02:08;;;;;;;;;;;;;;;-5.76;67.38;103234.89;1805479;79;20203;-61
2022/03/18 04:05:15;;;;;;;;;;;;;;;-5.74;67.35;103233.09;1805714;79;20212;-59
2022/03/18 04:08:20;;;;;;;;;;;;;;;-5.74;67.20;103243.76;1805506;79;20203;-61
2022/03/18 04:11:25;;;;;;;;;;;;;;;-5.76;67.19;103245.56;1805832;79;20175;-59
2022/03/18 04:14:34;;;;;;;;;;;;;;;-5.77;67.32;103249.09;1803743;79;20259;-59
2022/03/18 04:17:49;;;;;;;;;;;;;;;-5.68;67.38;103248.20;1805480;79;20539;-60
2022/03/18 04:20:54;;;;;;;;;;;;;;;-5.63;67.20;103247.31;1805400;79;20219;-60
2022/03/18 04:24:01;;;;;;;;;;;;;;;-5.73;66.82;103248.66;1805641;79;20196;-60
2022/03/18 04:27:08;;;;;;;;;;;;;;;-5.79;67.05;103250.91;1805526;79;20231;-60
2022/03/18 04:30:17;;;;;;;;;;;;;;;-5.79;67.10;103246.91;1805652;79;20251;-60
2022/03/18 04:33:22;;;;;;;;;;;;;;;-5.78;67.18;103254.00;1805924;79;20199;-59
2022/03/18 04:36:27;;;;;;;;;;;;;;;-5.75;67.03;103250.43;1805269;79;20219;-60
2022/03/18 04:39:31;;;;;;;;;;;;;;;-5.73;66.99;103254.89;1805042;79;20199;-60
2022/03/18 04:42:35;;;;;;;;;;;;;;;-5.70;66.99;103260.21;1805020;79;20223;-60
2022/03/18 04:45:40;;;;;;;;;;;;;;;-5.65;67.00;103258.43;1805227;79;20860;-58
2022/03/18 04:48:45;;;;;;;;;;;;;;;-5.55;66.93;103260.63;1805833;79;20528;-58
2022/03/18 04:51:49;;;;;;;;;;;;;;;-5.51;66.74;103264.61;1805532;79;20203;-58
2022/03/18 04:54:55;;;;;;;;;;;;;;;-5.43;66.74;103265.92;1805608;79;20188;-59
2022/03/18 04:58:01;;;;;;;;;;;;;;;-5.31;66.53;103262.76;1805753;79;20207;-58
2022/03/18 05:01:05;;;;;;;;;;;;;;;-5.18;66.36;103274.27;1821960;78;20439;-58
2022/03/18 05:04:13;;;;;;;;;;;;;;;-5.12;65.83;103274.27;1805725;79;20207;-59
2022/03/18 05:07:20;;;;;;;;;;;;;;;-5.12;65.41;103273.80;1819536;78;20471;-56
2022/03/18 05:10:26;;;;;;;;;;;;;;;-5.07;65.33;103274.67;1805623;79;20226;-59
2022/03/18 05:13:31;;;;;;;;;;;;;;;-4.98;65.04;103284.45;1805361;79;20195;-58
2022/03/18 05:16:37;;;;;;;;;;;;;;;-4.96;64.68;103280.86;1803964;79;20199;-59
2022/03/18 05:19:44;;;;;;;;;;;;;;;-4.98;64.59;103282.64;1805864;79;20493;-61
2022/03/18 05:22:51;;;;;;;;;;;;;;;-4.92;64.57;103293.76;1806256;79;20267;-59
2022/03/18 05:25:59;;;;;;;;;;;;;;;-4.81;64.48;103291.92;1805760;79;20187;-60
2022/03/18 05:29:04;;;;;;;;;;;;;;;-4.71;64.40;103290.98;1805912;79;20303;-58
2022/03/18 05:32:08;;;;;;;;;;;;;;;-4.60;64.12;103297.16;1805664;79;20208;-60
2022/03/18 05:35:18;;;;;;;;;;;;;;;-4.60;63.77;103302.02;1806624;79;20552;-59
2022/03/18 05:38:21;;;;;;;;;;;;;;;-4.50;63.59;103306.87;1805639;79;20523;-59
2022/03/18 05:41:24;;;;;;;;;;;;;;;-4.47;63.43;103305.98;1805220;79;20227;-58
2022/03/18 05:44:29;;;;;;;;;;;;;;;-4.43;63.33;103308.63;1805790;79;20253;-58
2022/03/18 05:47:36;;;;;;;;;;;;;;;-4.33;63.34;103313.45;1805499;79;20591;-59
2022/03/18 05:50:41;;;;;;;;;;;;;;;-4.25;63.11;103312.95;1775527;79;20551;-60
2022/03/18 05:53:48;;;;;;;;;;;;;;;-4.18;62.89;103314.23;1785787;79;20275;-58
2022/03/18 05:56:54;;;;;;;;;;;;;;;-4.07;62.89;103326.17;1806755;79;20268;-59
2022/03/18 05:59:59;;;;;;;;;;;;;;;-3.96;62.48;103321.63;1783753;79;20192;-60
2022/03/18 06:03:04;;;;;;;;;;;;;;;-3.95;61.76;103335.03;1775289;81;20207;-60
2022/03/18 06:06:09;;;;;;;;;;;;;;;-3.94;61.70;103333.21;1777465;79;20209;-60
2022/03/18 06:12:37;;;;;;;;;;;;;;;-3.93;61.75;103332.33;1805380;79;20589;-60
2022/03/18 06:15:44;;;;;;;;;;;;;;;-3.83;61.57;103328.22;1802609;79;20314;-61
2022/03/18 06:18:51;;;;;;;;;;;;;;;-3.77;61.37;103335.29;1803749;79;20209;-60
2022/03/18 06:22:02;;;;;;;;;;;;;;;-3.71;61.36;103335.27;1802881;79;20285;-60
2022/03/18 06:25:06;;;;;;;;;;;;;;;-3.64;60.97;103339.64;1796807;79;20244;-61
2022/03/18 06:28:13;;;;;;;;;;;;;;;-3.59;60.95;103337.81;1802094;79;20223;-59
2022/03/18 06:31:23;;;;;;;;;;;;;;;-3.56;60.67;103347.16;1793976;79;20273;-61
2022/03/18 06:34:32;;;;;;;;;;;;;;;-3.48;61.13;103346.19;1778471;79;20204;-60
2022/03/18 06:37:40;;;;;;;;;;;;;;;-3.34;60.76;103336.22;1791603;79;20214;-58
2022/03/18 06:40:47;;;;;;;;;;;;;;;-3.19;60.87;103347.23;1788460;79;20565;-59
2022/03/18 06:43:51;;;;;;;;;;;;;;;-2.94;60.85;103350.06;1798206;79;20596;-60
2022/03/18 06:46:58;;;;;;;;;;;;;;;-2.85;59.92;103351.76;1801819;79;20217;-59
2022/03/18 06:50:03;;;;;;;;;;;;;;;-2.72;59.74;103355.59;1800721;79;20577;-61
2022/03/18 06:53:06;;;;;;;;;;;;;;;-2.64;59.08;103357.73;1796133;79;20252;-61
2022/03/18 06:56:14;;;;;;;;;;;;;;;-2.65;58.50;103347.92;1772046;79;20234;-59
2022/03/18 06:59:21;;;;;;;;;;;;;;;-2.65;58.42;103353.28;1791922;79;20211;-61
2022/03/18 07:02:39;;;;;;;;;;;;;;;-2.56;58.31;103361.20;1756763;80;20279;-61
2022/03/18 07:05:55;;;;;;;;;;;;;;;-2.49;57.85;103350.80;1775989;79;20328;-61
2022/03/18 07:09:06;;;;;;;;;;;;;;;-2.43;57.50;103354.77;1732649;82;20242;-61
2022/03/18 07:12:22;;;;;;;;;;;;;;;-2.35;57.24;103359.58;1725631;81;20976;-60
2022/03/18 07:15:35;;;;;;;;;;;;;;;-2.24;57.26;103371.05;1780342;79;20239;-59
2022/03/18 07:18:42;;;;;;;;;;;;;;;-2.12;57.03;103368.16;1787225;79;20253;-61
2022/03/18 07:21:48;;;;;;;;;;;;;;;-2.03;56.54;103368.02;1732539;82;20241;-57
2022/03/18 07:25:15;;;;;;;;;;;;;;;-2.00;55.86;103361.26;1789881;79;20209;-61
2022/03/18 07:28:24;;;;;;;;;;;;;;;-2.02;55.58;103376.52;1731690;81;20250;-60
2022/03/18 07:31:46;;;;;;;;;;;;;;;-1.96;55.75;103370.16;1778564;79;20262;-56
2022/03/18 07:35:10;;;;;;;;;;;;;;;-1.87;55.27;103378.95;1788945;79;20652;-57
2022/03/18 07:38:44;;;;;;;;;;;;;;;-1.83;55.36;103376.67;1791388;79;20205;-56
2022/03/18 07:41:54;;;;;;;;;;;;;;;-1.64;55.27;103370.09;1786363;79;20292;-56
2022/03/18 07:44:54;;;;;;;;;;;;;;;-1.48;54.68;103369.81;1821155;78;20594;-56
2022/03/18 07:47:49;;;;;;;;;;;;;;;-1.40;54.64;103375.94;1785182;79;20484;-56
2022/03/18 07:50:35;;;;;;;;;;;;;;;-1.30;53.91;103382.94;1804263;79;20545;-57
2022/03/18 07:53:31;;;;;;;;;;;;;;;-1.33;53.63;103380.30;1795971;79;20232;-57
2022/03/18 07:56:45;;;;;;;;;;;;;;;-1.34;53.60;103371.80;1802126;79;20466;-60
2022/03/18 08:00:00;;;;;;;;;;;;;;;-1.29;53.68;103369.92;1800134;78;20583;-60
2022/03/18 08:03:10;;;;;;;;;;;;;;;-1.18;53.55;103387.62;1803840;79;20197;-62
2022/03/18 08:06:22;;;;;;;;;;;;;;;-1.09;53.45;103370.42;1795357;79;20205;-63
2022/03/18 08:09:29;;;;;;;;;;;;;;;-1.06;52.97;103369.05;1773809;79;20267;-62
2022/03/18 08:12:37;;;;;;;;;;;;;;;-1.02;53.28;103369.41;1802628;79;20230;-61
2022/03/18 08:15:48;;;;;;;;;;;;;;;-0.88;53.17;103367.33;1781968;79;20217;-61
2022/03/18 08:19:01;;;;;;;;;;;;;;;-0.74;53.24;103367.48;1770429;80;20188;-61
2022/03/18 08:22:30;;;;;;;;;;;;;;;-0.65;52.60;103370.45;1778460;78;20257;-62
2022/03/18 08:25:45;;;;;;;;;;;;;;;-0.73;52.03;103367.90;1799815;79;20202;-62
2022/03/18 08:29:07;;;;;;;;;;;;;;;-0.79;51.89;103373.86;1752022;79;20235;-62
2022/03/18 08:32:29;;;;;;;;;;;;;;;-0.88;51.79;103360.61;1791320;79;20249;-62
2022/03/18 08:35:45;;;;;;;;;;;;;;;-0.83;52.46;103367.68;1775736;79;20478;-61
2022/03/18 08:39:04;;;;;;;;;;;;;;;-0.69;52.08;103371.42;1776366;79;20272;-62
2022/03/18 08:42:15;;;;;;;;;;;;;;;-0.51;52.22;103366.53;1801361;79;20567;-61
2022/03/18 08:45:19;;;;;;;;;;;;;;;-0.39;51.94;103364.04;1793642;79;20201;-60
2022/03/18 08:48:23;;;;;;;;;;;;;;;-0.51;50.98;103361.63;1786106;79;20229;-61
2022/03/18 08:51:28;;;;;;;;;;;;;;;-0.83;50.95;103361.41;1788731;79;20567;-62
2022/03/18 08:54:33;;;;;;;;;;;;;;;-0.92;51.62;103359.77;1780723;79;20472;-62
2022/03/18 08:57:37;;;;;;;;;;;;;;;-0.81;52.15;103364.95;1785116;79;20246;-62
2022/03/18 09:00:41;;;;;;;;;;;;;;;-0.56;52.33;103367.56;1779666;79;20516;-60
2022/03/18 09:03:48;;;;;;;;;;;;;;;-0.40;52.19;103367.66;1779491;79;20216;-63
2022/03/18 09:06:51;;;;;;;;;;;;;;;-0.31;51.34;103362.97;1754798;81;20259;-63
2022/03/18 09:09:57;;;;;;;;;;;;;;;-0.36;51.36;103351.41;1788698;79;20205;-61
2022/03/18 09:13:04;;;;;;;;;;;;;;;-0.26;51.69;103352.09;1791948;79;20212;-60
2022/03/18 09:16:37;;;;;;;;;;;;;;;-0.10;51.09;103358.90;1796841;79;20244;-60
2022/03/18 09:19:43;;;;;;;;;;;;;;;0.02;51.00;103365.81;1798399;79;20375;-62
2022/03/18 09:22:51;;;;;;;;;;;;;;;-0.04;50.45;103367.72;1798042;79;20616;-61
2022/03/18 09:25:57;;;;;;;;;;;;;;;-0.14;50.67;103361.22;1803676;79;20201;-60
2022/03/18 09:29:04;;;;;;;;;;;;;;;-0.15;50.88;103371.58;1804490;79;20233;-61
2022/03/18 09:32:09;;;;;;;;;;;;;;;-0.10;50.67;103363.83;1786467;79;20205;-61
2022/03/18 09:35:16;;;;;;;;;;;;;;;0.05;50.83;103354.48;1802028;79;20239;-61
2022/03/18 09:38:21;;;;;;;;;;;;;;;0.07;50.43;103370.60;1805383;79;21174;-60
2022/03/18 09:41:29;;;;;;;;;;;;;;;-0.04;50.38;103364.14;1804945;79;20251;-60
2022/03/18 09:44:44;;;;;;;;;;;;;;;0.01;50.70;103356.84;1801818;79;20206;-61
2022/03/18 09:47:50;;;;;;;;;;;;;;;-0.02;50.51;103358.27;1773415;81;20581;-60
2022/03/18 09:50:55;;;;;;;;;;;;;;;-0.06;50.66;103371.35;1804716;79;20547;-61
2022/03/18 09:53:59;;;;;;;;;;;;;;;-0.06;50.64;103365.97;1805854;79;20217;-59
2022/03/18 09:57:04;;;;;;;;;;;;;;;0.02;50.76;103358.59;1806366;79;20209;-61
2022/03/18 10:00:11;;;;;;;;;;;;;;;0.20;50.84;103353.23;1806161;79;20285;-59
2022/03/18 10:03:22;;;;;;;;;;;;;;;0.57;51.38;103352.74;1803695;79;20247;-60
2022/03/18 10:06:32;;;;;;;;;;;;;;;0.98;50.48;103353.86;1805528;79;20251;-58
2022/03/18 10:09:44;;;;;;;;;;;;;;;1.25;49.80;103351.25;1785536;79;20243;-60
2022/03/18 10:12:56;;;;;;;;;;;;;;;1.41;49.04;103340.92;1805962;79;20356;-60
2022/03/18 10:16:03;;;;;;;;;;;;;;;1.41;48.41;103343.13;1804056;79;20217;-60
2022/03/18 10:19:16;;;;;;;;;;;;;;;1.37;48.30;103344.17;1803644;79;20205;-60
2022/03/18 10:22:28;;;;;;;;;;;;;;;1.12;48.05;103340.42;1804565;79;20225;-60
2022/03/18 10:25:50;;;;;;;;;;;;;;;1.06;48.45;103335.66;1803914;79;20197;-60
2022/03/18 10:28:55;;;;;;;;;;;;;;;1.41;49.15;103332.34;1804134;79;20265;-60
2022/03/18 10:32:09;;;;;;;;;;;;;;;1.78;47.94;103329.41;1804349;79;20213;-59
2022/03/18 10:38:42;;;;;;;;;;;;;;;2.10;47.45;103343.23;1804429;79;20307;-60
2022/03/18 10:41:49;;;;;;;;;;;;;;;2.08;47.00;103335.67;1804965;79;20209;-60
2022/03/18 10:45:06;;;;;;;;;;;;;;;2.18;46.93;103330.36;1772406;79;20205;-60
2022/03/18 10:48:13;;;;;;;;;;;;;;;2.33;46.80;103343.38;1797377;79;20229;-59
2022/03/18 10:51:15;;;;;;;;;;;;;;;2.46;46.52;103346.95;1793719;79;20208;-61
2022/03/18 10:54:04;;;;;;;;;;;;;;;2.55;45.91;103337.66;1802027;78;20206;-61
2022/03/18 10:57:05;;;;;;;;;;;;;;;2.41;45.91;103334.55;1800037;79;20206;-61
2022/03/18 10:59:52;;;;;;;;;;;;;;;2.40;45.91;103338.16;1797776;79;20256;-61
2022/03/18 11:02:47;;;;;;;;;;;;;;;2.36;46.22;103341.43;1783780;79;20232;-61
2022/03/18 11:05:58;;;;;;;;;;;;;;;2.42;46.43;103347.12;1790621;79;20285;-60
2022/03/18 11:09:08;;;;;;;;;;;;;;;2.56;46.33;103335.36;1796961;79;20213;-60
2022/03/18 11:12:29;;;;;;;;;;;;;;;2.51;46.13;103336.88;1789068;79;20261;-61
2022/03/18 11:15:34;;;;;;;;;;;;;;;2.77;46.34;103330.56;1802330;78;20205;-60
2022/03/18 11:18:38;;;;;;;;;;;;;;;3.04;45.89;103326.38;1791587;79;20207;-62
2022/03/18 11:21:45;;;;;;;;;;;;;;;2.97;44.87;103322.61;1771986;79;20486;-61
2022/03/18 11:24:53;;;;;;;;;;;;;;;2.87;45.66;103332.02;1804064;78;20217;-60
2022/03/18 11:27:59;;;;;;;;;;;;;;;3.32;45.79;103319.94;1803269;79;20205;-62
2022/03/18 11:31:16;;;;;;;;;;;;;;;3.88;44.91;103330.37;1798767;78;20260;-61
2022/03/18 11:34:23;;;;;;;;;;;;;;;4.12;44.08;103326.63;1770484;79;20206;-61
2022/03/18 11:37:30;;;;;;;;;;;;;;;3.99;43.23;103325.39;1772073;80;20213;-61
2022/03/18 11:40:35;;;;;;;;;;;;;;;3.58;43.11;103323.45;1723560;83;20215;-63
2022/03/18 11:43:42;;;;;;;;;;;;;;;3.49;43.42;103324.27;1715172;81;20234;-61
2022/03/18 11:46:48;;;;;;;;;;;;;;;3.20;43.55;103309.59;1756984;81;20299;-61
2022/03/18 11:49:54;;;;;;;;;;;;;;;2.88;44.25;103317.54;1769634;79;20210;-62
2022/03/18 11:53:04;;;;;;;;;;;;;;;2.78;44.52;103317.44;1775370;79;20205;-63
2022/03/18 11:56:18;;;;;;;;;;;;;;;2.94;45.03;103326.32;1787237;79;20201;-61
2022/03/18 11:59:39;;;;;;;;;;;;;;;3.11;44.83;103326.18;1803493;79;20205;-61
2022/03/18 12:02:44;;;;;;;;;;;;;;;3.44;44.52;103320.84;1784536;78;20209;-60
2022/03/18 12:06:01;;;;;;;;;;;;;;;3.46;44.38;103325.71;1779620;79;20479;-64
2022/03/18 12:09:08;;;;;;;;;;;;;;;3.61;44.43;103314.30;1795219;79;20275;-63
2022/03/18 12:12:23;;;;;;;;;;;;;;;3.63;44.02;103323.26;1798988;79;20340;-64
2022/03/18 12:15:29;;;;;;;;;;;;;;;3.53;43.60;103321.37;1790631;79;20242;-62
2022/03/18 12:18:38;;;;;;;;;;;;;;;3.35;43.26;103322.07;1793153;79;20203;-62
2022/03/18 12:21:45;;;;;;;;;;;;;;;3.40;43.61;103326.84;1785292;79;20217;-63
2022/03/18 12:24:55;;;;;;;;;;;;;;;3.51;43.69;103320.55;1796061;79;20282;-61
2022/03/18 12:28:01;;;;;;;;;;;;;;;3.46;43.04;103327.95;1784179;79;20308;-63
2022/03/18 12:31:22;;;;;;;;;;;;;;;3.26;43.48;103327.84;1801063;78;20277;-60
2022/03/18 12:34:35;;;;;;;;;;;;;;;3.18;43.59;103331.30;1798712;78;20209;-62
2022/03/18 12:37:41;;;;;;;;;;;;;;;3.31;44.06;103327.20;1778798;79;20274;-62
2022/03/18 12:40:49;;;;;;;;;;;;;;;3.46;43.54;103327.95;1766148;81;20515;-65
2022/03/18 12:44:05;;;;;;;;;;;;;;;3.40;43.36;103334.97;1798716;79;20206;-64
2022/03/18 12:47:13;;;;;;;;;;;;;;;3.39;43.71;103332.32;1803373;79;20261;-61
2022/03/18 12:50:19;;;;;;;;;;;;;;;3.73;43.69;103328.70;1803132;79;20208;-62
2022/03/18 12:53:28;;;;;;;;;;;;;;;4.13;43.32;103323.46;1800424;79;20209;-65
2022/03/18 12:56:39;;;;;;;;;;;;;;;4.36;42.30;103333.75;1772403;81;20599;-66
2022/03/18 12:59:45;;;;;;;;;;;;;;;4.11;41.42;103342.97;1777824;79;20222;-62
2022/03/18 13:02:53;;;;;;;;;;;;;;;3.58;41.75;103342.41;1793530;79;20263;-64
2022/03/18 13:06:00;;;;;;;;;;;;;;;3.46;41.93;103344.20;1803039;79;20206;-63
2022/03/18 13:09:18;;;;;;;;;;;;;;;3.51;42.11;103334.09;1781882;79;20267;-64
2022/03/18 13:12:30;;;;;;;;;;;;;;;3.70;42.21;103331.54;1784224;79;20603;-64
2022/03/18 13:15:36;;;;;;;;;;;;;;;3.79;41.85;103344.25;1773122;79;20196;-62
2022/03/18 13:18:42;;;;;;;;;;;;;;;4.01;42.01;103335.67;1772713;81;20227;-67
2022/03/18 13:21:53;;;;;;;;;;;;;;;4.36;41.89;103332.90;1733709;82;20692;-64
2022/03/18 13:25:02;;;;;;;;;;;;;;;4.61;41.26;103333.12;1805029;79;20604;-69
2022/03/18 13:28:09;;;;;;;;;;;;;;;4.84;40.83;103329.88;1805365;79;20240;-64
2022/03/18 13:34:40;;;;;;;;;;;;;;;4.50;39.83;103338.13;1804870;78;20292;-63
2022/03/18 13:38:12;;;;;;;;;;;;;;;4.30;40.34;103342.16;1804054;79;20225;-62
2022/03/18 13:41:17;;;;;;;;;;;;;;;4.48;40.16;103337.33;1783680;79;20205;-64
2022/03/18 13:44:18;;;;;;;;;;;;;;;4.67;40.02;103333.34;1771922;79;20249;-63
2022/03/18 13:47:26;;;;;;;;;;;;;;;4.76;39.85;103338.86;1777686;79;20206;-64
2022/03/18 13:50:31;;;;;;;;;;;;;;;4.89;39.82;103338.25;1803501;79;20209;-63
2022/03/18 13:53:35;;;;;;;;;;;;;;;4.96;39.33;103336.14;1765769;79;20217;-62
2022/03/18 13:56:43;;;;;;;;;;;;;;;4.97;39.16;103332.47;1798501;79;20229;-64
2022/03/18 13:59:59;;;;;;;;;;;;;;;5.06;39.04;103349.73;1779281;79;20550;-65
2022/03/18 14:03:12;;;;;;;;;;;;;;;4.97;38.17;103331.11;1789050;80;20210;-67
2022/03/18 14:06:20;;;;;;;;;;;;;;;4.78;38.64;103336.48;1788662;79;20210;-66
2022/03/18 14:09:28;;;;;;;;;;;;;;;4.85;38.99;103339.81;1789278;80;20236;-64
2022/03/18 14:12:33;;;;;;;;;;;;;;;4.90;39.00;103327.78;1785860;79;20208;-63
2022/03/18 14:15:41;;;;;;;;;;;;;;;4.95;39.01;103342.04;1776299;79;20577;-62
2022/03/18 14:18:48;;;;;;;;;;;;;;;5.03;38.83;103340.34;1790339;79;20213;-65
2022/03/18 14:21:53;;;;;;;;;;;;;;;4.90;38.05;103336.42;1771384;81;20220;-62
2022/03/18 14:24:59;;;;;;;;;;;;;;;4.83;38.28;103338.98;1769179;79;20615;-63
2022/03/18 14:28:07;;;;;;;;;;;;;;;4.60;38.22;103344.04;1797204;78;20819;-62
2022/03/18 14:31:13;;;;;;;;;;;;;;;4.39;38.39;103335.48;1795261;78;20229;-63
2022/03/18 14:34:16;;;;;;;;;;;;;;;4.46;38.95;103332.90;1779394;79;20763;-63
2022/03/18 14:37:30;;;;;;;;;;;;;;;4.68;39.10;103331.53;1788482;79;20290;-62
2022/03/18 14:40:44;;;;;;;;;;;;;;;4.69;38.80;103331.92;1784911;79;20874;-63
2022/03/18 14:43:51;;;;;;;;;;;;;;;4.67;38.31;103332.45;1803884;79;20225;-63
2022/03/18 14:46:56;;;;;;;;;;;;;;;4.58;38.44;103331.04;1803725;79;20241;-63
2022/03/18 14:50:02;;;;;;;;;;;;;;;4.34;38.29;103332.07;1796910;79;20562;-62
2022/03/18 14:53:06;;;;;;;;;;;;;;;3.90;38.37;103343.85;1794612;79;20237;-62
2022/03/18 14:56:18;;;;;;;;;;;;;;;3.81;39.12;103343.73;1795599;79;20245;-62
2022/03/18 14:59:25;;;;;;;;;;;;;;;4.11;38.99;103337.55;1784323;79;20209;-62
2022/03/18 15:02:33;;;;;;;;;;;;;;;4.53;39.21;103333.92;1795326;79;20644;-61
2022/03/18 15:05:38;;;;;;;;;;;;;;;5.07;38.31;103341.52;1795550;79;20577;-61
2022/03/18 15:08:43;;;;;;;;;;;;;;;5.11;37.66;103342.23;1795651;80;20214;-63
2022/03/18 15:11:47;;;;;;;;;;;;;;;4.63;37.61;103336.27;1796190;80;20193;-62
2022/03/18 15:14:53;;;;;;;;;;;;;;;4.22;38.35;103348.83;1795975;79;20236;-62
2022/03/18 15:17:59;;;;;;;;;;;;;;;4.04;39.15;103342.82;1796110;79;20546;-61
2022/03/18 15:21:09;;;;;;;;;;;;;;;4.10;38.93;103338.50;1796089;79;20249;-63
2022/03/18 15:24:12;;;;;;;;;;;;;;;4.14;38.70;103346.44;1796214;79;20260;-61
2022/03/18 15:27:17;;;;;;;;;;;;;;;3.98;38.35;103350.71;1796464;79;20209;-63
2022/03/18 15:30:24;;;;;;;;;;;;;;;3.60;38.56;103358.10;1796345;79;20237;-62
2022/03/18 15:33:32;;;;;;;;;;;;;;;3.19;39.14;103352.50;1796345;79;20193;-61
2022/03/18 15:36:39;;;;;;;;;;;;;;;3.06;39.51;103347.97;1797278;79;20550;-62
2022/03/18 15:39:46;;;;;;;;;;;;;;;2.87;40.09;103364.48;1796547;79;20235;-61
2022/03/18 15:42:54;;;;;;;;;;;;;;;2.65;40.54;103358.02;1796165;79;20210;-62
2022/03/18 15:45:59;;;;;;;;;;;;;;;2.45;40.87;103365.94;1796439;79;20553;-61
2022/03/18 15:49:10;;;;;;;;;;;;;;;2.17;41.11;103363.24;1786071;79;20262;-63
2022/03/18 15:52:16;;;;;;;;;;;;;;;1.93;41.44;103371.26;1804486;79;20197;-61
2022/03/18 15:55:28;;;;;;;;;;;;;;;1.70;42.09;103369.26;1806792;78;20189;-61
2022/03/18 15:58:30;;;;;;;;;;;;;;;1.61;42.64;103370.00;1806611;79;20228;-61
2022/03/18 16:01:37;;;;;;;;;;;;;;;1.51;43.01;103371.63;1804669;79;20272;-62
2022/03/18 16:04:43;;;;;;;;;;;;;;;1.42;43.39;103366.97;1806851;79;20213;-62
2022/03/18 16:07:50;;;;;;;;;;;;;;;1.34;43.71;103375.30;1806320;79;20240;-61
2022/03/18 16:10:57;;;;;;;;;;;;;;;1.24;43.85;103365.69;1806684;79;20201;-62
2022/03/18 16:14:06;;;;;;;;;;;;;;;1.10;44.30;103380.03;1801258;79;20197;-62
2022/03/18 16:17:10;;;;;;;;;;;;;;;1.02;44.46;103378.01;1805395;79;20197;-62
2022/03/18 16:20:17;;;;;;;;;;;;;;;0.93;44.60;103375.58;1805948;79;20205;-62
2022/03/18 16:23:22;;;;;;;;;;;;;;;0.87;44.91;103380.24;1805600;79;20317;-61